Las Vegas Municipal Airport
KLVS : now visible

Airfield :











YOU CAN JOIN US ON...

 
LOGIN :

Register | Disclaimer

   EN    FR    IT 

 









Legend :    VFR   Marginal VFR   IFR   Intensive IFR   Very Intensive IFR
Visi :
Ceiling :
>= 8 km
>= 3000ft
5 to 8 km
1000 to 3000 ft
1500m to 5 km
500 to 1000 ft
800 to 1500m
200 to 500 ft
< 800m
< 200 ft
Symbols :   Thunderstorms  Fog  Heavy snow  Heavy precipitations  Wind > 20 kt






- Airport Elevation : 6877 ft


KLVS - Las Vegas Municipal

CURRENT METAR :
  • 221353Z AUTO 21007KT 10SM CLR M02/M08 A2998 RMK AO2 SLP134 T10221078

EXPIRED METARs :
  • 221253Z AUTO 20010KT 10SM CLR M06/M09 A2997 RMK AO2 SLP130 T10561089
  • 221153Z AUTO 18007KT 10SM CLR M07/M10 A2996 RMK AO2 SLP123 T10671100 11006 21067 56007

TAF KLVS
Valid from the 22 at 12:00 until the 23 at 12:00 UTC


221122Z 2212/2312 16010KT P6SM FEW100 SCT200
FM221500 20016KT P6SM SCT100 BKN200
FM221800 23024G34KT P6SM SCT120
FM230300 25011KT P6SM SCT120
FM230900 28009KT P6SM BKN120
KZAB FIR / North America



MET'MAP, your aeronautical weather chart ! - Copyright ORBIFLY December 2007 - Disclaimer

ORBIFLY MET'MAP TEAM :

Programming & Development : Alexandra Zaïnal
Concept & original design : Baudouin d'Aumeries
Assistance for programming : Marc-Olivier Méhu
Technical & hardware support : Manuel Goepfert

Contact : metmap@orbifly.com




SOURCES & CREDITS :

   NOAA       Earth
Advisory